createdAt,value
2023-04-27T00:01:09.816Z,4.30
2023-04-27T00:04:14.431Z,4.30
2023-04-27T00:07:16.747Z,4.30
2023-04-27T00:10:18.538Z,4.30
2023-04-27T00:13:20.255Z,4.30
2023-04-27T00:16:22.059Z,4.30
2023-04-27T00:19:23.849Z,4.30
2023-04-27T00:22:25.569Z,4.30
2023-04-27T00:25:27.498Z,4.30
2023-04-27T00:28:29.279Z,4.30
2023-04-27T00:31:31.199Z,4.40
2023-04-27T00:34:32.881Z,4.40
2023-04-27T00:37:34.642Z,4.50
2023-04-27T00:40:36.475Z,4.50
2023-04-27T00:43:45.714Z,4.50
2023-04-27T00:46:47.559Z,4.50
2023-04-27T00:49:49.748Z,4.60
2023-04-27T00:52:51.552Z,4.60
2023-04-27T00:55:53.287Z,4.50
2023-04-27T00:58:55.069Z,4.50
2023-04-27T01:01:57.135Z,4.50
2023-04-27T01:04:58.912Z,4.60
2023-04-27T01:08:00.733Z,4.60
2023-04-27T01:11:02.496Z,4.60
2023-04-27T01:14:06.062Z,4.60
2023-04-27T01:17:08.464Z,4.70
2023-04-27T01:20:11.176Z,4.70
2023-04-27T01:23:17.500Z,4.70
2023-04-27T01:26:19.413Z,4.70
2023-04-27T01:29:21.515Z,4.70
2023-04-27T01:32:23.224Z,4.60
2023-04-27T01:35:27.559Z,4.60
2023-04-27T01:38:30.742Z,4.50
2023-04-27T01:41:32.437Z,4.50
2023-04-27T01:45:16.942Z,4.50
2023-04-27T01:48:18.735Z,4.50
2023-04-27T01:51:20.598Z,4.50
2023-04-27T01:54:22.294Z,4.50
2023-04-27T01:57:24.046Z,4.50
2023-04-27T02:00:25.724Z,4.50
2023-04-27T02:03:27.479Z,4.50
2023-04-27T02:06:29.267Z,4.50
2023-04-27T02:09:31.060Z,4.50
2023-04-27T02:12:32.679Z,4.60
2023-04-27T02:15:35.402Z,4.60
2023-04-27T02:18:38.399Z,4.60
2023-04-27T02:21:41.054Z,4.50
2023-04-27T02:24:42.682Z,4.50
2023-04-27T02:27:44.335Z,4.50
2023-04-27T02:30:47.244Z,4.50
2023-04-27T02:33:49.015Z,4.50
2023-04-27T02:36:50.692Z,4.50
2023-04-27T02:39:52.453Z,4.50
2023-04-27T02:42:54.143Z,4.50
2023-04-27T02:45:55.896Z,4.50
2023-04-27T02:48:57.547Z,4.50
2023-04-27T02:51:59.196Z,4.50
2023-04-27T02:55:01.015Z,4.50
2023-04-27T02:58:02.728Z,4.40
2023-04-27T03:01:04.748Z,4.40
2023-04-27T03:04:06.642Z,4.40
2023-04-27T03:07:08.360Z,4.40
2023-04-27T03:10:10.469Z,4.40
2023-04-27T03:13:12.133Z,4.40
2023-04-27T03:16:13.868Z,4.40
2023-04-27T03:19:15.714Z,4.40
2023-04-27T03:22:17.692Z,4.40
2023-04-27T03:25:19.498Z,4.40
2023-04-27T03:28:21.164Z,4.40
2023-04-27T03:31:22.897Z,4.40
2023-04-27T03:34:24.656Z,4.40
2023-04-27T03:37:26.997Z,4.40
2023-04-27T03:40:28.650Z,4.40
2023-04-27T03:43:30.492Z,4.50
2023-04-27T03:46:32.207Z,4.50
2023-04-27T03:49:33.943Z,4.50
2023-04-27T03:52:35.616Z,4.40
2023-04-27T03:55:42.204Z,4.30
2023-04-27T03:58:43.848Z,4.40
2023-04-27T04:01:45.736Z,4.30
2023-04-27T04:04:47.517Z,4.40
2023-04-27T04:07:49.349Z,4.30
2023-04-27T04:10:51.227Z,4.40
2023-04-27T04:13:52.970Z,4.30
2023-04-27T04:16:54.629Z,4.20
2023-04-27T04:19:56.472Z,4.20
2023-04-27T04:22:58.102Z,4.10
2023-04-27T04:25:59.993Z,4.10
2023-04-27T04:29:01.669Z,4.10
2023-04-27T04:32:03.333Z,4.10
2023-04-27T04:35:06.052Z,4.10
2023-04-27T04:38:08.619Z,4.20
2023-04-27T04:41:10.489Z,4.10
2023-04-27T04:44:12.530Z,4.20
2023-04-27T04:47:14.184Z,4.20
2023-04-27T04:50:15.892Z,4.20
2023-04-27T04:53:17.505Z,4.20
2023-04-27T04:56:19.170Z,4.20
2023-04-27T04:59:20.947Z,4.20
2023-04-27T05:02:23.327Z,4.30
2023-04-27T05:05:25.311Z,4.40
2023-04-27T05:08:27.011Z,4.50
2023-04-27T05:11:51.188Z,4.60
2023-04-27T05:14:53.307Z,4.70
2023-04-27T05:17:55.057Z,4.80
2023-04-27T05:20:56.876Z,4.90
2023-04-27T05:23:58.529Z,5.10
2023-04-27T05:27:02.135Z,5.20
2023-04-27T05:30:04.675Z,5.30
2023-04-27T05:33:07.043Z,5.40
2023-04-27T05:36:09.375Z,5.50
2023-04-27T05:39:11.202Z,5.60
2023-04-27T05:42:12.978Z,5.80
2023-04-27T05:45:14.999Z,5.80
2023-04-27T05:48:16.937Z,5.70
2023-04-27T05:51:18.599Z,5.80
2023-04-27T05:54:20.377Z,5.90
2023-04-27T05:57:22.529Z,6.10
2023-04-27T06:00:25.000Z,6.50
2023-04-27T06:03:27.101Z,7.10
2023-04-27T06:06:32.792Z,7.70
2023-04-27T06:09:34.466Z,7.90
2023-04-27T06:12:36.370Z,7.70
2023-04-27T06:15:38.043Z,7.60
2023-04-27T06:18:39.707Z,7.80
2023-04-27T06:21:41.438Z,8.50
2023-04-27T06:24:43.109Z,9.20
2023-04-27T06:27:44.814Z,9.60
2023-04-27T06:30:56.674Z,10.40
2023-04-27T06:33:58.321Z,11.10
2023-04-27T06:37:00.037Z,11.10
2023-04-27T06:40:01.687Z,11.30
2023-04-27T06:43:03.334Z,10.80
2023-04-27T06:46:05.462Z,10.60
2023-04-27T06:49:07.113Z,10.80
2023-04-27T06:52:08.764Z,10.60
2023-04-27T06:55:10.688Z,10.50
2023-04-27T06:58:12.388Z,10.40
2023-04-27T07:01:14.101Z,10.30
2023-04-27T07:04:15.995Z,10.70
2023-04-27T07:07:18.520Z,11.30
2023-04-27T07:10:20.276Z,12.00
2023-04-27T07:13:21.984Z,12.80
2023-04-27T07:16:23.721Z,13.60
2023-04-27T07:19:25.474Z,14.40
2023-04-27T07:22:27.134Z,14.90
2023-04-27T07:25:28.745Z,14.80
2023-04-27T07:28:30.406Z,14.90
2023-04-27T07:31:33.160Z,15.60
2023-04-27T07:34:49.209Z,15.80
2023-04-27T07:37:54.799Z,15.70
2023-04-27T07:41:01.672Z,14.80
2023-04-27T07:44:03.448Z,13.90
2023-04-27T07:47:05.257Z,13.50
2023-04-27T07:50:08.293Z,13.70
2023-04-27T07:53:09.995Z,13.60
2023-04-27T07:56:11.762Z,13.60
2023-04-27T07:59:15.621Z,13.40
2023-04-27T08:02:20.180Z,13.30
2023-04-27T08:05:22.812Z,13.50
2023-04-27T08:08:24.830Z,13.90
2023-04-27T08:11:27.122Z,14.30
2023-04-27T08:14:29.053Z,14.60
2023-04-27T08:17:30.796Z,14.90
2023-04-27T08:20:32.671Z,14.30
2023-04-27T08:23:34.405Z,13.80
2023-04-27T08:26:36.377Z,12.80
2023-04-27T08:29:38.298Z,12.30
2023-04-27T08:32:40.127Z,12.20
2023-04-27T08:35:41.820Z,12.30
2023-04-27T08:38:43.724Z,12.90
2023-04-27T08:41:46.282Z,13.10
2023-04-27T08:44:48.039Z,14.00
2023-04-27T08:47:50.175Z,14.60
2023-04-27T08:50:53.873Z,14.90
2023-04-27T08:53:57.921Z,15.30
2023-04-27T08:56:59.603Z,15.40
2023-04-27T09:00:01.398Z,15.30
2023-04-27T09:03:04.036Z,15.40
2023-04-27T09:06:06.790Z,16.20
2023-04-27T09:09:08.989Z,15.40
2023-04-27T09:12:14.059Z,14.40
2023-04-27T09:15:15.712Z,14.10
2023-04-27T09:18:22.100Z,14.50
2023-04-27T09:21:33.830Z,14.70
2023-04-27T09:24:37.662Z,14.80
2023-04-27T09:27:39.422Z,15.00
2023-04-27T09:30:41.094Z,14.90
2023-04-27T09:33:44.553Z,14.60
2023-04-27T09:36:48.621Z,14.50
2023-04-27T09:39:50.565Z,14.80
2023-04-27T09:42:52.906Z,14.90
2023-04-27T09:45:55.738Z,15.00
2023-04-27T09:48:58.158Z,15.80
2023-04-27T09:51:59.928Z,15.80
2023-04-27T09:55:03.386Z,15.30
2023-04-27T09:58:25.327Z,15.40
2023-04-27T10:01:50.052Z,16.10
2023-04-27T10:05:03.911Z,16.40
2023-04-27T10:08:06.064Z,15.90
2023-04-27T10:11:20.970Z,16.00
2023-04-27T10:14:24.580Z,15.70
2023-04-27T10:17:36.784Z,15.70
2023-04-27T10:20:38.611Z,16.00
2023-04-27T10:23:52.132Z,16.10
2023-04-27T10:27:01.460Z,16.20
2023-04-27T10:30:10.557Z,16.00
2023-04-27T10:33:15.914Z,16.00
2023-04-27T10:36:17.597Z,15.50
2023-04-27T10:39:29.768Z,15.40
2023-04-27T10:42:34.650Z,15.30
2023-04-27T10:45:36.306Z,15.20
2023-04-27T10:48:40.853Z,15.20
2023-04-27T10:51:42.650Z,14.90
2023-04-27T10:54:47.437Z,15.20
2023-04-27T10:57:51.624Z,15.30
2023-04-27T11:00:53.328Z,15.10
2023-04-27T11:03:59.340Z,14.80
2023-04-27T11:07:01.613Z,14.60
2023-04-27T11:10:03.845Z,14.30
2023-04-27T11:13:10.439Z,14.10
2023-04-27T11:16:12.368Z,13.50
2023-04-27T11:19:14.641Z,13.20
2023-04-27T11:22:16.929Z,13.40
2023-04-27T11:25:28.094Z,13.70
2023-04-27T11:28:29.765Z,13.80
2023-04-27T11:31:47.661Z,13.90
2023-04-27T11:34:50.743Z,13.80
2023-04-27T11:37:59.502Z,13.60
2023-04-27T11:41:05.871Z,13.60
2023-04-27T11:44:09.090Z,13.70
2023-04-27T11:47:19.155Z,14.00
2023-04-27T11:50:25.825Z,14.10
2023-04-27T11:53:39.464Z,14.10
2023-04-27T11:56:42.728Z,14.00
2023-04-27T11:59:44.526Z,13.70
2023-04-27T12:02:46.415Z,13.60
2023-04-27T12:05:50.014Z,13.40
2023-04-27T12:08:52.408Z,13.30
2023-04-27T12:11:54.749Z,13.30
2023-04-27T12:14:56.780Z,13.10
2023-04-27T12:17:58.489Z,13.10
2023-04-27T12:21:02.915Z,13.00
2023-04-27T12:24:05.731Z,12.90
2023-04-27T12:27:08.269Z,12.80
2023-04-27T12:30:10.182Z,13.00
2023-04-27T12:33:12.044Z,13.10
2023-04-27T12:36:13.778Z,13.10
2023-04-27T12:39:20.336Z,13.10
2023-04-27T12:42:24.105Z,13.10
2023-04-27T12:45:26.008Z,13.10
2023-04-27T12:48:27.742Z,12.90
2023-04-27T12:51:29.446Z,12.90
2023-04-27T12:54:31.102Z,12.80
2023-04-27T12:57:32.886Z,12.70
2023-04-27T13:00:34.854Z,12.70
2023-04-27T13:03:36.716Z,12.60
2023-04-27T13:06:38.445Z,12.40
2023-04-27T13:09:40.246Z,12.50
2023-04-27T13:12:41.976Z,12.50
2023-04-27T13:15:43.783Z,12.50
2023-04-27T13:18:49.837Z,12.40
2023-04-27T13:21:51.540Z,12.50
2023-04-27T13:24:53.180Z,12.50
2023-04-27T13:27:57.780Z,12.50
2023-04-27T13:35:21.920Z,12.40
2023-04-27T13:38:23.602Z,12.60
2023-04-27T13:41:26.642Z,12.60
2023-04-27T13:44:28.288Z,12.50
2023-04-27T13:47:36.723Z,12.60
2023-04-27T13:50:38.439Z,12.50
2023-04-27T13:53:40.095Z,12.40
2023-04-27T13:56:41.753Z,12.50
2023-04-27T13:59:43.392Z,12.50
2023-04-27T14:02:45.256Z,12.40
2023-04-27T14:05:48.820Z,12.30
2023-04-27T14:08:50.802Z,12.30
2023-04-27T14:11:56.403Z,12.40
2023-04-27T14:14:59.261Z,12.40
2023-04-27T14:18:01.083Z,12.40
2023-04-27T14:21:02.929Z,12.50
2023-04-27T14:24:04.659Z,12.40
2023-04-27T14:27:06.343Z,12.30
2023-04-27T14:30:08.511Z,12.30
2023-04-27T14:33:10.276Z,12.30
2023-04-27T14:36:12.038Z,12.30
2023-04-27T14:39:13.924Z,12.40
2023-04-27T14:42:16.319Z,12.30
2023-04-27T14:45:18.908Z,12.30
2023-04-27T14:48:20.906Z,12.20
2023-04-27T14:51:22.863Z,12.10
2023-04-27T14:54:24.569Z,11.90
2023-04-27T14:57:26.938Z,11.90
2023-04-27T15:00:28.611Z,11.90
2023-04-27T15:03:33.854Z,11.90
2023-04-27T15:06:36.043Z,11.90
2023-04-27T15:09:37.714Z,12.00
2023-04-27T15:12:39.363Z,11.90
2023-04-27T15:15:41.309Z,11.90
2023-04-27T15:18:43.141Z,12.00
2023-04-27T15:21:44.882Z,12.00
2023-04-27T15:24:46.830Z,12.00
2023-04-27T15:27:49.527Z,12.00
2023-04-27T15:30:51.434Z,12.00
2023-04-27T15:33:54.613Z,12.10
2023-04-27T15:36:56.351Z,12.20
2023-04-27T15:39:58.016Z,12.20
2023-04-27T15:42:59.835Z,12.20
2023-04-27T15:46:05.424Z,12.10
2023-04-27T15:49:07.130Z,12.10
2023-04-27T15:52:08.784Z,12.10
2023-04-27T15:55:10.427Z,12.10
2023-04-27T15:58:12.046Z,12.10
2023-04-27T16:01:13.777Z,12.10
2023-04-27T16:04:15.794Z,12.10
2023-04-27T16:07:17.875Z,11.90
2023-04-27T16:10:19.571Z,11.90
2023-04-27T16:13:21.222Z,11.80
2023-04-27T16:16:23.380Z,11.70
2023-04-27T16:19:28.660Z,11.70
2023-04-27T16:22:30.519Z,11.70
2023-04-27T16:25:32.256Z,11.70
2023-04-27T16:28:34.581Z,11.70
2023-04-27T16:31:36.425Z,11.60
2023-04-27T16:34:38.224Z,11.60
2023-04-27T16:37:39.907Z,11.40
2023-04-27T16:40:41.555Z,11.40
2023-04-27T16:43:43.205Z,11.40
2023-04-27T16:46:45.511Z,11.30
2023-04-27T16:49:47.121Z,11.30
2023-04-27T16:52:49.811Z,11.30
2023-04-27T16:55:51.662Z,11.30
2023-04-27T16:58:53.373Z,11.30
2023-04-27T17:01:55.040Z,11.20
2023-04-27T17:04:57.547Z,11.20
2023-04-27T17:07:59.314Z,11.20
2023-04-27T17:11:01.052Z,11.20
2023-04-27T17:14:02.718Z,11.10
2023-04-27T17:17:05.777Z,11.10
2023-04-27T17:20:09.538Z,11.00
2023-04-27T17:23:11.199Z,11.10
2023-04-27T17:26:15.778Z,11.00
2023-04-27T17:29:17.409Z,11.00
2023-04-27T17:32:19.094Z,11.10
2023-04-27T17:35:20.851Z,11.00
2023-04-27T17:38:22.568Z,11.00
2023-04-27T17:41:24.309Z,10.90
2023-04-27T17:44:25.989Z,10.90
2023-04-27T17:47:28.031Z,10.90
2023-04-27T17:50:30.750Z,10.90
2023-04-27T17:53:32.584Z,10.90
2023-04-27T17:56:34.244Z,11.00
2023-04-27T17:59:36.816Z,11.00
2023-04-27T18:02:39.152Z,10.90
2023-04-27T18:05:41.064Z,10.90
2023-04-27T18:08:42.757Z,10.80
2023-04-27T18:11:44.678Z,10.80
2023-04-27T18:14:46.447Z,10.80
2023-04-27T18:17:48.501Z,10.80
2023-04-27T18:20:50.349Z,10.70
2023-04-27T18:24:32.750Z,10.50
2023-04-27T18:27:37.191Z,10.40
2023-04-27T18:30:38.924Z,10.30
2023-04-27T18:33:40.623Z,10.30
2023-04-27T18:36:42.531Z,10.30
2023-04-27T18:39:44.185Z,10.10
2023-04-27T18:42:45.826Z,10.00
2023-04-27T18:45:47.491Z,10.10
2023-04-27T18:48:49.211Z,10.00
2023-04-27T18:51:51.057Z,9.90
2023-04-27T18:54:52.723Z,9.90
2023-04-27T18:57:54.369Z,9.90
2023-04-27T19:00:56.030Z,9.80
2023-04-27T19:03:58.700Z,9.70
2023-04-27T19:07:00.699Z,9.60
2023-04-27T19:10:02.398Z,9.60
2023-04-27T19:13:04.117Z,9.50
2023-04-27T19:16:08.497Z,9.50
2023-04-27T19:19:10.156Z,9.40
2023-04-27T19:22:12.010Z,9.30
2023-04-27T19:25:13.679Z,9.30
2023-04-27T19:28:19.300Z,9.30
2023-04-27T19:31:21.061Z,9.20
2023-04-27T19:34:23.034Z,9.20
2023-04-27T19:37:26.006Z,9.20
2023-04-27T19:40:27.765Z,9.10
2023-04-27T19:43:29.450Z,9.10
2023-04-27T19:46:31.556Z,9.00
2023-04-27T19:49:33.818Z,9.00
2023-04-27T19:52:35.543Z,8.90
2023-04-27T19:55:37.715Z,9.00
2023-04-27T19:58:39.516Z,8.90
2023-04-27T20:01:41.253Z,8.90
2023-04-27T20:04:43.223Z,8.90
2023-04-27T20:07:45.126Z,8.80
2023-04-27T20:10:46.897Z,8.80
2023-04-27T20:13:49.286Z,8.80
2023-04-27T20:16:50.962Z,8.80
2023-04-27T20:19:56.111Z,8.80
2023-04-27T20:22:57.766Z,8.80
2023-04-27T20:25:59.381Z,8.80
2023-04-27T20:29:01.201Z,8.70
2023-04-27T20:32:02.956Z,8.60
2023-04-27T20:35:05.583Z,8.60
2023-04-27T20:38:07.509Z,8.60
2023-04-27T20:41:10.460Z,8.50
2023-04-27T20:44:12.967Z,8.50
2023-04-27T20:47:14.891Z,8.40
2023-04-27T20:50:16.639Z,8.40
2023-04-27T20:53:18.289Z,8.30
2023-04-27T21:00:42.187Z,8.10
2023-04-27T21:03:44.662Z,8.20
2023-04-27T21:06:46.539Z,8.10
2023-04-27T21:09:48.190Z,8.10
2023-04-27T21:12:49.874Z,8.00
2023-04-27T21:15:51.537Z,7.90
2023-04-27T21:18:53.177Z,7.90
2023-04-27T21:21:54.836Z,7.80
2023-04-27T21:24:56.490Z,7.70
2023-04-27T21:27:58.216Z,7.70
2023-04-27T21:31:06.796Z,7.60
2023-04-27T21:34:08.782Z,7.60
2023-04-27T21:37:10.685Z,7.60
2023-04-27T21:40:12.722Z,7.60
2023-04-27T21:43:14.385Z,7.60
2023-04-27T21:46:16.093Z,7.60
2023-04-27T21:49:18.086Z,7.60
2023-04-27T21:52:21.410Z,7.60
2023-04-27T21:55:23.038Z,7.60
2023-04-27T21:58:24.923Z,7.60
2023-04-27T22:01:27.168Z,7.50
2023-04-27T22:04:29.133Z,7.60
2023-04-27T22:07:32.483Z,7.60
2023-04-27T22:10:34.305Z,7.60
2023-04-27T22:13:36.387Z,7.50
2023-04-27T22:16:38.662Z,7.50
2023-04-27T22:19:40.966Z,7.60
2023-04-27T22:22:42.754Z,7.50
2023-04-27T22:25:44.523Z,7.50
2023-04-27T22:28:46.157Z,7.50
2023-04-27T22:31:47.822Z,7.50
2023-04-27T22:34:49.624Z,7.50
2023-04-27T22:37:51.324Z,7.40
2023-04-27T22:40:52.966Z,7.40
2023-04-27T22:43:54.649Z,7.40
2023-04-27T22:46:57.041Z,7.40
2023-04-27T22:49:59.125Z,7.40
2023-04-27T22:53:01.015Z,7.30
2023-04-27T22:56:02.796Z,7.30
2023-04-27T22:59:04.448Z,7.30
2023-04-27T23:02:06.248Z,7.30
2023-04-27T23:05:08.578Z,7.20
2023-04-27T23:08:10.224Z,7.20
2023-04-27T23:11:13.658Z,7.20
2023-04-27T23:14:18.126Z,7.20
2023-04-27T23:17:22.539Z,7.20
2023-04-27T23:20:28.517Z,7.20
2023-04-27T23:23:31.054Z,7.20
2023-04-27T23:26:32.707Z,7.10
2023-04-27T23:29:34.634Z,7.10
2023-04-27T23:32:37.029Z,7.10
2023-04-27T23:35:39.016Z,7.10
2023-04-27T23:38:41.003Z,7.10
2023-04-27T23:41:43.076Z,7.10
2023-04-27T23:44:44.782Z,7.10
2023-04-27T23:47:46.498Z,7.10
2023-04-27T23:50:48.242Z,7.10
2023-04-27T23:53:49.907Z,7.10
2023-04-27T23:56:51.714Z,7.00
2023-04-27T23:59:53.397Z,7.10
